Pearl Of Scandinavia — OWFU2 — position and weather

sailwx.info

Track history (hours):
 
Tides and Currents Weather Stations Pressure Air Temp Water Temp Dewpoint Dewpoint Depression Visibility Wind Speed Wind Dir Waves Ship Positions

Pearl Of Scandinavia

Last reported at 2020-Aug-10 00:30 UTC. Time now 2020-Aug-10 02:46 UTC.
Position N 58°10' E 010°46'.

Length 176.4 m; beam 34 m; draft 6.215 m.

Type: Ship. MMSI: 219945000.

Date/timePositionNaut miles runAvg speedWind from/ knotsBaromVisibWave heightAir tempDewpointWater temp
2020-Aug-10 00:30N 58°10' E 010°46'1817.9
2020-Aug-09 23:30N 57°52' E 010°48'25 7.1
2020-Aug-09 20:00N 57°28' E 010°52'2113.8
2020-Aug-09 18:30N 57°23' E 011°30'3618.1
2020-Aug-09 16:30N 56°49' E 011°52'3117.3
2020-Aug-09 14:43N 56°21' E 012°14'3616.5
2020-Aug-09 12:30N 55°48' E 012°43'7 4.6
2020-Aug-09 10:55N 55°42' E 012°36'0 0.0
2020-Aug-09 09:25N 55°42' E 012°36'0 0.0
2020-Aug-09 07:25N 55°42' E 012°36'0 0.0
2020-Aug-09 06:58N 55°42' E 012°36'13 9.2
2020-Aug-09 05:31N 55°56' E 012°39'1312.7
2020-Aug-09 04:30N 56°07' E 012°30'7214.4
2020-Aug-08 23:30N 57°15' E 011°48'1615.6
2020-Aug-08 22:30N 57°26' E 011°27'1313.5
2020-Aug-08 21:30N 57°28' E 011°02'26 6.5
2020-Aug-08 17:30N 57°53' E 010°46'5117.0
2020-Aug-08 14:29N 58°44' E 010°41'2617.4
2020-Aug-08 13:00N 59°10' E 010°38'2617.3
2020-Aug-08 11:30N 59°36' E 010°38'714.5
2020-Aug-08 11:00N 59°43' E 010°35'13 8.2
2020-Aug-08 09:28N 59°54' E 010°45'0 0.0
2020-Aug-08 08:58N 59°54' E 010°45'0 0.0
2020-Aug-08 07:58N 59°54' E 010°45'24 8.3
2020-Aug-08 05:00N 59°30' E 010°35'1615.7
2020-Aug-08 04:00N 59°15' E 010°38'816.0
2020-Aug-08 03:30N 59°07' E 010°40'816.2
2020-Aug-08 03:00N 58°59' E 010°41'3617.8
2020-Aug-08 01:00N 58°23' E 010°44'1818.4
2020-Aug-08 00:00N 58°05' E 010°46'3617.8
2020-Aug-07 22:00N 57°29' E 010°47'9 3.6
2020-Aug-07 19:30N 57°29' E 011°04'3216.2
2020-Aug-07 17:30N 57°13' E 011°56'2117.9
2020-Aug-07 16:21N 56°53' E 012°08'4617.6
2020-Aug-07 13:43N 56°09' E 012°30'1318.0
2020-Aug-07 13:00N 55°58' E 012°42'917.3
2020-Aug-07 12:30N 55°49' E 012°44'8 4.1
2020-Aug-07 10:26N 55°42' E 012°36'0 0.0
2020-Aug-07 09:59N 55°42' E 012°36'2 0.7
2020-Aug-07 06:31N 55°44' E 012°39'2013.4
2020-Aug-07 05:00N 56°04' E 012°38'713.3
2020-Aug-07 04:30N 56°08' E 012°29'714.0
2020-Aug-07 04:00N 56°13' E 012°20'714.8
2020-Aug-07 03:31N 56°19' E 012°12'3413.8
2020-Aug-07 01:01N 56°51' E 011°49'2214.4
2020-Aug-06 23:30N 57°11' E 011°36'2412.0
2020-Aug-06 21:30N 57°29' E 011°06'1812.0
2020-Aug-06 20:01N 57°26' E 010°33'5313.2
2020-Aug-06 16:00N 58°19' E 010°43'4216.6
2020-Aug-06 13:30N 59°00' E 010°39'46 6.1
2020-Aug-06 06:00N 59°46' E 010°34'713.6
2020-Aug-06 05:31N 59°39' E 010°37'1716.7
2020-Aug-06 04:31N 59°22' E 010°35'918.8
2020-Aug-06 04:01N 59°13' E 010°38'3718.3
2020-Aug-06 02:00N 58°37' E 010°43'1018.9
2020-Aug-06 01:30N 58°27' E 010°44'5618.7
2020-Aug-05 22:30N 57°31' E 010°46'6 2.3
2020-Aug-05 19:48N 57°28' E 010°56'516.6
2020-Aug-05 19:31N 57°29' E 011°05'3216.0
2020-Aug-05 17:31N 57°12' E 011°55'6717.9
2020-Aug-05 13:47N 56°08' E 012°31'1418.0
2020-Aug-05 13:01N 55°57' E 012°43'917.6
2020-Aug-05 12:31N 55°48' E 012°43'7 2.2
2020-Aug-05 09:29N 55°42' E 012°36'2 0.8
2020-Aug-05 06:31N 55°44' E 012°39'2512.6
2020-Aug-05 04:30N 56°08' E 012°28'8514.1
2020-Aug-04 22:31N 57°25' E 011°24'1912.4
2020-Aug-04 21:01N 57°26' E 010°49'9 8.7
2020-Aug-04 20:00N 57°26' E 010°33'3411.4
2020-Aug-04 17:01N 57°60' E 010°44'10317.2
2020-Aug-04 11:00N 59°43' E 010°35'13 8.0
2020-Aug-04 09:26N 59°54' E 010°45'0 0.0
2020-Aug-04 08:59N 59°54' E 010°45'0 0.0
2020-Aug-04 08:26N 59°54' E 010°45'26 7.7
2020-Aug-04 05:00N 59°28' E 010°34'1817.8
2020-Aug-04 04:00N 59°11' E 010°39'1918.8
2020-Aug-04 03:00N 58°52' E 010°41'8418.6
2020-Aug-03 22:30N 57°28' E 010°44'40 8.0
2020-Aug-03 17:31N 57°04' E 011°44'7717.2
2020-Aug-03 13:01N 55°55' E 012°45'13 6.7
2020-Aug-03 11:00N 55°42' E 012°36'0 0.0
2020-Aug-03 10:00N 55°42' E 012°36'0 0.0
2020-Aug-03 09:30N 55°42' E 012°36'0 0.0
2020-Aug-03 09:00N 55°42' E 012°36'0 0.0
2020-Aug-03 07:01N 55°42' E 012°36'14 9.3
2020-Aug-03 05:30N 55°56' E 012°39'1312.7
2020-Aug-03 04:30N 56°08' E 012°30'12010.9
2020-Aug-02 17:30N 57°53' E 010°44'1716.8
2020-Aug-02 16:30N 58°09' E 010°44'5117.0
2020-Aug-02 13:30N 59°00' E 010°39'917.6
2020-Aug-02 13:00N 59°09' E 010°38'917.6
2020-Aug-02 12:30N 59°18' E 010°36'3316.4
2020-Aug-02 10:30N 59°51' E 010°35'611.9
2020-Aug-02 10:00N 59°54' E 010°45'4 1.0
2020-Aug-02 06:29N 59°52' E 010°39'2214.8
2020-Aug-02 05:00N 59°31' E 010°35'815.8
2020-Aug-02 04:30N 59°23' E 010°35'816.1
2020-Aug-02 04:00N 59°15' E 010°38'1616.4
2020-Aug-02 03:00N 58°58' E 010°41'1817.7
2020-Aug-02 02:00N 58°40' E 010°42'1919.1
2020-Aug-02 01:00N 58°21' E 010°45'4618.4
2020-Aug-01 22:30N 57°36' E 010°46'6710.2
2020-Aug-01 16:00N 56°47' E 012°11'4018.1
2020-Aug-01 13:47N 56°09' E 012°30'2711.7
2020-Aug-01 11:30N 55°42' E 012°36'0 0.0
2020-Aug-01 09:29N 55°42' E 012°36'14 3.5
2020-Aug-01 05:30N 55°56' E 012°39'3413.6
2020-Aug-01 03:00N 56°25' E 012°06'3614.4
2020-Aug-01 00:30N 56°58' E 011°44'714.8
2020-Aug-01 00:00N 57°05' E 011°40'3212.8
2020-Jul-31 21:31N 57°29' E 010°59'17 4.8
2020-Jul-31 18:01N 57°44' E 010°45'4016.1
2020-Jul-31 15:30N 58°24' E 010°43'6217.7
2020-Jul-31 12:00N 59°26' E 010°33'2914.5
2020-Jul-31 10:00N 59°54' E 010°45'4 1.3
2020-Jul-31 06:30N 59°51' E 010°38'816.2
2020-Jul-31 06:00N 59°43' E 010°35'1615.6
2020-Jul-31 05:00N 59°28' E 010°34'1817.7
2020-Jul-31 04:00N 59°10' E 010°39'5718.9
2020-Jul-31 01:00N 58°14' E 010°45'  
Track history (hours):
 
Tides and Currents Weather Stations Pressure Air Temp Water Temp Dewpoint Dewpoint Depression Visibility Wind Speed Wind Dir Waves Ship Positions

Pearl Of Scandinavia

Last reported at 2020-Aug-10 00:30 UTC. Time now 2020-Aug-10 02:46 UTC.
Position N 58°10' E 010°46'.

Length 176.4 m; beam 34 m; draft 6.215 m.

Type: Ship. MMSI: 219945000.

Date/timePositionNaut miles runAvg speedWind from/ knotsBaromVisibWave heightAir tempDewpointWater temp
2020-Aug-10 00:30N 58°10' E 010°46'1817.9
2020-Aug-09 23:30N 57°52' E 010°48'25 7.1
2020-Aug-09 20:00N 57°28' E 010°52'2113.8
2020-Aug-09 18:30N 57°23' E 011°30'3618.1
2020-Aug-09 16:30N 56°49' E 011°52'3117.3
2020-Aug-09 14:43N 56°21' E 012°14'3616.5
2020-Aug-09 12:30N 55°48' E 012°43'7 4.6
2020-Aug-09 10:55N 55°42' E 012°36'0 0.0
2020-Aug-09 09:25N 55°42' E 012°36'0 0.0
2020-Aug-09 07:25N 55°42' E 012°36'0 0.0
2020-Aug-09 06:58N 55°42' E 012°36'13 9.2
2020-Aug-09 05:31N 55°56' E 012°39'1312.7
2020-Aug-09 04:30N 56°07' E 012°30'7214.4
2020-Aug-08 23:30N 57°15' E 011°48'1615.6
2020-Aug-08 22:30N 57°26' E 011°27'1313.5
2020-Aug-08 21:30N 57°28' E 011°02'26 6.5
2020-Aug-08 17:30N 57°53' E 010°46'5117.0
2020-Aug-08 14:29N 58°44' E 010°41'2617.4
2020-Aug-08 13:00N 59°10' E 010°38'2617.3
2020-Aug-08 11:30N 59°36' E 010°38'714.5
2020-Aug-08 11:00N 59°43' E 010°35'13 8.2
2020-Aug-08 09:28N 59°54' E 010°45'0 0.0
2020-Aug-08 08:58N 59°54' E 010°45'0 0.0
2020-Aug-08 07:58N 59°54' E 010°45'24 8.3
2020-Aug-08 05:00N 59°30' E 010°35'1615.7
2020-Aug-08 04:00N 59°15' E 010°38'816.0
2020-Aug-08 03:30N 59°07' E 010°40'816.2
2020-Aug-08 03:00N 58°59' E 010°41'3617.8
2020-Aug-08 01:00N 58°23' E 010°44'1818.4
2020-Aug-08 00:00N 58°05' E 010°46'3617.8
2020-Aug-07 22:00N 57°29' E 010°47'9 3.6
2020-Aug-07 19:30N 57°29' E 011°04'3216.2
2020-Aug-07 17:30N 57°13' E 011°56'2117.9
2020-Aug-07 16:21N 56°53' E 012°08'4617.6
2020-Aug-07 13:43N 56°09' E 012°30'1318.0
2020-Aug-07 13:00N 55°58' E 012°42'917.3
2020-Aug-07 12:30N 55°49' E 012°44'8 4.1
2020-Aug-07 10:26N 55°42' E 012°36'0 0.0
2020-Aug-07 09:59N 55°42' E 012°36'2 0.7
2020-Aug-07 06:31N 55°44' E 012°39'2013.4
2020-Aug-07 05:00N 56°04' E 012°38'713.3
2020-Aug-07 04:30N 56°08' E 012°29'714.0
2020-Aug-07 04:00N 56°13' E 012°20'714.8
2020-Aug-07 03:31N 56°19' E 012°12'3413.8
2020-Aug-07 01:01N 56°51' E 011°49'2214.4
2020-Aug-06 23:30N 57°11' E 011°36'2412.0
2020-Aug-06 21:30N 57°29' E 011°06'1812.0
2020-Aug-06 20:01N 57°26' E 010°33'5313.2
2020-Aug-06 16:00N 58°19' E 010°43'4216.6
2020-Aug-06 13:30N 59°00' E 010°39'46 6.1
2020-Aug-06 06:00N 59°46' E 010°34'713.6
2020-Aug-06 05:31N 59°39' E 010°37'1716.7
2020-Aug-06 04:31N 59°22' E 010°35'918.8
2020-Aug-06 04:01N 59°13' E 010°38'3718.3
2020-Aug-06 02:00N 58°37' E 010°43'1018.9
2020-Aug-06 01:30N 58°27' E 010°44'5618.7
2020-Aug-05 22:30N 57°31' E 010°46'6 2.3
2020-Aug-05 19:48N 57°28' E 010°56'516.6
2020-Aug-05 19:31N 57°29' E 011°05'3216.0
2020-Aug-05 17:31N 57°12' E 011°55'6717.9
2020-Aug-05 13:47N 56°08' E 012°31'1418.0
2020-Aug-05 13:01N 55°57' E 012°43'917.6
2020-Aug-05 12:31N 55°48' E 012°43'7 2.2
2020-Aug-05 09:29N 55°42' E 012°36'2 0.8
2020-Aug-05 06:31N 55°44' E 012°39'2512.6
2020-Aug-05 04:30N 56°08' E 012°28'8514.1
2020-Aug-04 22:31N 57°25' E 011°24'1912.4
2020-Aug-04 21:01N 57°26' E 010°49'9 8.7
2020-Aug-04 20:00N 57°26' E 010°33'3411.4
2020-Aug-04 17:01N 57°60' E 010°44'10317.2
2020-Aug-04 11:00N 59°43' E 010°35'13 8.0
2020-Aug-04 09:26N 59°54' E 010°45'0 0.0
2020-Aug-04 08:59N 59°54' E 010°45'0 0.0
2020-Aug-04 08:26N 59°54' E 010°45'26 7.7
2020-Aug-04 05:00N 59°28' E 010°34'1817.8
2020-Aug-04 04:00N 59°11' E 010°39'1918.8
2020-Aug-04 03:00N 58°52' E 010°41'8418.6
2020-Aug-03 22:30N 57°28' E 010°44'40 8.0
2020-Aug-03 17:31N 57°04' E 011°44'7717.2
2020-Aug-03 13:01N 55°55' E 012°45'13 6.7
2020-Aug-03 11:00N 55°42' E 012°36'0 0.0
2020-Aug-03 10:00N 55°42' E 012°36'0 0.0
2020-Aug-03 09:30N 55°42' E 012°36'0 0.0
2020-Aug-03 09:00N 55°42' E 012°36'0 0.0
2020-Aug-03 07:01N 55°42' E 012°36'14 9.3
2020-Aug-03 05:30N 55°56' E 012°39'1312.7
2020-Aug-03 04:30N 56°08' E 012°30'12010.9
2020-Aug-02 17:30N 57°53' E 010°44'1716.8
2020-Aug-02 16:30N 58°09' E 010°44'5117.0
2020-Aug-02 13:30N 59°00' E 010°39'917.6
2020-Aug-02 13:00N 59°09' E 010°38'917.6
2020-Aug-02 12:30N 59°18' E 010°36'3316.4
2020-Aug-02 10:30N 59°51' E 010°35'611.9
2020-Aug-02 10:00N 59°54' E 010°45'4 1.0
2020-Aug-02 06:29N 59°52' E 010°39'2214.8
2020-Aug-02 05:00N 59°31' E 010°35'815.8
2020-Aug-02 04:30N 59°23' E 010°35'816.1
2020-Aug-02 04:00N 59°15' E 010°38'1616.4
2020-Aug-02 03:00N 58°58' E 010°41'1817.7
2020-Aug-02 02:00N 58°40' E 010°42'1919.1
2020-Aug-02 01:00N 58°21' E 010°45'4618.4
2020-Aug-01 22:30N 57°36' E 010°46'6710.2
2020-Aug-01 16:00N 56°47' E 012°11'4018.1
2020-Aug-01 13:47N 56°09' E 012°30'2711.7
2020-Aug-01 11:30N 55°42' E 012°36'0 0.0
2020-Aug-01 09:29N 55°42' E 012°36'14 3.5
2020-Aug-01 05:30N 55°56' E 012°39'3413.6
2020-Aug-01 03:00N 56°25' E 012°06'3614.4
2020-Aug-01 00:30N 56°58' E 011°44'714.8
2020-Aug-01 00:00N 57°05' E 011°40'3212.8
2020-Jul-31 21:31N 57°29' E 010°59'17 4.8
2020-Jul-31 18:01N 57°44' E 010°45'4016.1
2020-Jul-31 15:30N 58°24' E 010°43'6217.7
2020-Jul-31 12:00N 59°26' E 010°33'2914.5
2020-Jul-31 10:00N 59°54' E 010°45'4 1.3
2020-Jul-31 06:30N 59°51' E 010°38'816.2
2020-Jul-31 06:00N 59°43' E 010°35'1615.6
2020-Jul-31 05:00N 59°28' E 010°34'1817.7
2020-Jul-31 04:00N 59°10' E 010°39'5718.9
2020-Jul-31 01:00N 58°14' E 010°45'  

Dump ship's entire track history